cnl7 weather

Nobel / Lumsden Air Park
Ontario, Canada

Public forecast

Using degrees Celsius for public forecast. Weather courtesy of forecast.io.

METAR (pilot weather report)

Closest report is Muskoka Airport, 41.9 nm (77.5 km) SE. Retrieved 2019/09/19 03:00 UTC (6 minutes ago):

CYQA 190300Z AUTO 17006KT 9SM FEW170 16/12 A3024 RMK SLP242

TAF (pilot weather forecast)

Forecast is more than 6 hours old.

Closest forecast is Muskoka Airport, 41.9 nm (77.5 km) SE. Retrieved 2019/09/18 20:00 UTC (7 hours ago):

TAF CYQA 181938Z 1820/1902 18006KT P6SM SCT080 TEMPO 1820/1902 BKN080 BECMG 1900/1902 VRB03KT RMK FCST BASED ON AUTO OBS. NXT FCST WILL BE ISSUED AT 191145Z